createdAt,value
2023-01-13T00:01:33.212Z,99677.94
2023-01-13T00:04:05.466Z,99689.56
2023-01-13T00:06:33.866Z,99679.41
2023-01-13T00:09:02.441Z,99693.53
2023-01-13T00:11:30.898Z,99687.69
2023-01-13T00:13:58.663Z,99696.34
2023-01-13T00:16:26.389Z,99696.66
2023-01-13T00:18:55.549Z,99691.69
2023-01-13T00:21:25.249Z,99687.66
2023-01-13T00:23:54.311Z,99685.53
2023-01-13T00:26:26.603Z,99677.50
2023-01-13T00:28:58.450Z,99681.97
2023-01-13T00:31:28.480Z,99692.25
2023-01-13T00:33:59.634Z,99687.75
2023-01-13T00:36:27.960Z,99677.09
2023-01-13T00:38:56.065Z,99690.84
2023-01-13T00:41:25.585Z,99676.25
2023-01-13T00:43:53.468Z,99690.84
2023-01-13T00:46:24.011Z,99692.81
2023-01-13T00:48:52.086Z,99698.69
2023-01-13T00:51:22.782Z,99694.56
2023-01-13T00:53:52.455Z,99700.19
2023-01-13T00:56:38.604Z,99691.06
2023-01-13T00:59:07.495Z,99683.72
2023-01-13T01:01:35.611Z,99698.81
2023-01-13T01:04:03.489Z,99694.97
2023-01-13T01:06:36.631Z,99694.44
2023-01-13T01:09:34.467Z,99703.38
2023-01-13T01:12:02.514Z,99709.69
2023-01-13T01:14:30.274Z,99710.31
2023-01-13T01:16:58.464Z,99720.25
2023-01-13T01:19:28.460Z,99718.63
2023-01-13T01:21:57.575Z,99718.56
2023-01-13T01:24:25.576Z,99717.44
2023-01-13T01:26:53.335Z,99712.19
2023-01-13T01:29:21.987Z,99720.00
2023-01-13T01:31:49.773Z,99714.78
2023-01-13T01:34:17.607Z,99705.91
2023-01-13T01:36:45.374Z,99708.88
2023-01-13T01:39:14.546Z,99716.78
2023-01-13T01:42:03.133Z,99719.16
2023-01-13T01:45:00.071Z,99740.13
2023-01-13T01:47:29.256Z,99726.78
2023-01-13T01:49:59.514Z,99726.78
2023-01-13T01:52:31.442Z,99719.78
2023-01-13T01:55:07.261Z,99711.91
2023-01-13T01:57:42.033Z,99724.13
2023-01-13T02:00:12.040Z,99730.84
2023-01-13T02:02:42.418Z,99733.50
2023-01-13T02:08:04.557Z,99742.13
2023-01-13T02:10:34.496Z,99748.44
2023-01-13T02:13:06.018Z,99746.50
2023-01-13T02:15:40.823Z,99750.53
2023-01-13T02:18:29.251Z,99756.59
2023-01-13T02:21:13.695Z,99751.13
2023-01-13T02:24:34.461Z,99756.97
2023-01-13T02:27:37.666Z,99740.91
2023-01-13T02:30:32.462Z,99739.09
2023-01-13T02:33:11.521Z,99729.47
2023-01-13T02:35:48.694Z,99717.47
2023-01-13T02:38:21.379Z,99730.09
2023-01-13T02:40:59.528Z,99729.13
2023-01-13T02:43:55.230Z,99724.66
2023-01-13T02:46:30.309Z,99717.69
2023-01-13T02:49:01.424Z,99730.94
2023-01-13T02:51:32.431Z,99718.28
2023-01-13T02:54:05.552Z,99715.63
2023-01-13T02:56:38.825Z,99713.56
2023-01-13T02:59:08.547Z,99715.00
2023-01-13T03:01:38.377Z,99714.16
2023-01-13T03:04:13.969Z,99724.63
2023-01-13T03:06:54.300Z,99706.31
2023-01-13T03:09:30.458Z,99714.72
2023-01-13T03:12:10.685Z,99702.88
2023-01-13T03:14:44.859Z,99706.38
2023-01-13T03:17:34.472Z,99713.50
2023-01-13T03:20:07.759Z,99701.22
2023-01-13T03:23:04.247Z,99691.63
2023-01-13T03:25:35.898Z,99690.47
2023-01-13T03:28:06.778Z,99693.69
2023-01-13T03:30:38.725Z,99700.84
2023-01-13T03:33:14.393Z,99704.31
2023-01-13T03:35:47.331Z,99702.13
2023-01-13T03:38:22.541Z,99697.50
2023-01-13T03:40:53.343Z,99698.94
2023-01-13T03:43:42.617Z,99705.22
2023-01-13T03:46:17.366Z,99704.78
2023-01-13T03:48:49.182Z,99716.91
2023-01-13T03:51:20.299Z,99719.56
2023-01-13T03:53:53.384Z,99715.66
2023-01-13T03:56:28.436Z,99712.31
2023-01-13T03:58:59.409Z,99722.53
2023-01-13T04:01:32.862Z,99725.56
2023-01-13T04:04:07.476Z,99709.56
2023-01-13T04:06:41.444Z,99709.56
2023-01-13T04:09:17.202Z,99712.19
2023-01-13T04:11:48.960Z,99715.97
2023-01-13T04:17:13.678Z,99705.97
2023-01-13T04:19:42.619Z,99703.00
2023-01-13T04:22:10.221Z,99704.59
2023-01-13T04:24:41.828Z,99700.41
2023-01-13T04:27:09.431Z,99698.47
2023-01-13T04:29:37.025Z,99711.03
2023-01-13T04:32:05.411Z,99709.53
2023-01-13T04:34:33.311Z,99704.66
2023-01-13T04:37:02.274Z,99703.25
2023-01-13T04:39:30.731Z,99704.34
2023-01-13T04:42:02.428Z,99704.09
2023-01-13T04:44:56.495Z,99697.53
2023-01-13T04:47:24.386Z,99695.16
2023-01-13T04:49:51.980Z,99690.59
2023-01-13T04:52:20.943Z,99692.09
2023-01-13T04:54:49.314Z,99692.66
2023-01-13T04:57:16.880Z,99682.63
2023-01-13T04:59:44.514Z,99670.34
2023-01-13T05:02:19.697Z,99677.59
2023-01-13T05:04:48.293Z,99668.00
2023-01-13T05:07:18.421Z,99667.84
2023-01-13T05:09:55.157Z,99667.25
2023-01-13T05:12:41.173Z,99677.41
2023-01-13T05:15:28.195Z,99670.47
2023-01-13T05:17:56.386Z,99671.41
2023-01-13T05:20:24.592Z,99670.00
2023-01-13T05:23:09.819Z,99670.84
2023-01-13T05:25:42.827Z,99671.53
2023-01-13T05:28:11.721Z,99663.59
2023-01-13T05:30:45.974Z,99665.66
2023-01-13T05:33:16.364Z,99680.53
2023-01-13T05:35:46.207Z,99675.69
2023-01-13T05:38:15.080Z,99681.41
2023-01-13T05:41:02.377Z,99684.63
2023-01-13T05:43:32.914Z,99690.91
2023-01-13T05:46:05.386Z,99676.69
2023-01-13T05:48:36.203Z,99680.31
2023-01-13T05:51:05.867Z,99681.00
2023-01-13T05:53:34.770Z,99668.34
2023-01-13T05:56:07.629Z,99678.25
2023-01-13T05:58:35.660Z,99688.84
2023-01-13T06:01:05.361Z,99675.03
2023-01-13T06:03:34.395Z,99692.88
2023-01-13T06:06:03.885Z,99697.38
2023-01-13T06:08:32.700Z,99690.41
2023-01-13T06:11:00.541Z,99698.88
2023-01-13T06:13:29.599Z,99699.19
2023-01-13T06:15:59.140Z,99689.13
2023-01-13T06:18:28.304Z,99708.78
2023-01-13T06:20:57.011Z,99714.19
2023-01-13T06:23:25.413Z,99705.31
2023-01-13T06:26:02.155Z,99708.94
2023-01-13T06:28:33.121Z,99707.13
2023-01-13T06:31:05.745Z,99715.59
2023-01-13T06:33:37.402Z,99706.69
2023-01-13T06:36:33.201Z,99708.63
2023-01-13T06:39:07.398Z,99715.47
2023-01-13T06:41:56.015Z,99718.50
2023-01-13T06:44:25.573Z,99723.28
2023-01-13T06:46:54.055Z,99725.78
2023-01-13T06:49:21.948Z,99713.34
2023-01-13T06:51:50.078Z,99716.72
2023-01-13T06:54:17.779Z,99716.72
2023-01-13T06:56:45.424Z,99722.97
2023-01-13T06:59:13.058Z,99718.97
2023-01-13T07:01:42.368Z,99726.91
2023-01-13T07:04:10.699Z,99732.72
2023-01-13T07:06:39.303Z,99722.13
2023-01-13T07:09:08.342Z,99724.59
2023-01-13T07:11:39.394Z,99727.88
2023-01-13T07:14:24.694Z,99720.31
2023-01-13T07:17:24.980Z,99730.78
2023-01-13T07:19:53.059Z,99731.31
2023-01-13T07:22:20.664Z,99726.31
2023-01-13T07:24:48.830Z,99728.56
2023-01-13T07:27:16.556Z,99736.22
2023-01-13T07:29:45.864Z,99720.53
2023-01-13T07:32:15.601Z,99721.88
2023-01-13T07:34:44.616Z,99742.25
2023-01-13T07:37:12.521Z,99730.28
2023-01-13T07:39:40.171Z,99737.53
2023-01-13T07:42:52.309Z,99746.28
2023-01-13T07:45:20.047Z,99750.19
2023-01-13T07:47:52.384Z,99727.88
2023-01-13T07:50:24.312Z,99738.06
2023-01-13T07:52:52.453Z,99743.09
2023-01-13T07:55:20.084Z,99748.91
2023-01-13T07:57:49.096Z,99751.00
2023-01-13T08:00:17.774Z,99755.88
2023-01-13T08:02:45.453Z,99753.13
2023-01-13T08:05:13.730Z,99753.66
2023-01-13T08:07:44.355Z,99751.00
2023-01-13T08:10:12.476Z,99759.22
2023-01-13T08:12:57.767Z,99744.88
2023-01-13T08:15:25.449Z,99755.47
2023-01-13T08:17:53.396Z,99753.09
2023-01-13T08:20:20.996Z,99764.25
2023-01-13T08:22:49.946Z,99762.84
2023-01-13T08:25:19.347Z,99765.47
2023-01-13T08:27:49.195Z,99774.25
2023-01-13T08:30:18.959Z,99768.53
2023-01-13T08:32:47.184Z,99778.59
2023-01-13T08:35:15.159Z,99773.56
2023-01-13T08:37:42.989Z,99790.97
2023-01-13T08:40:16.493Z,99785.94
2023-01-13T08:42:45.572Z,99795.03
2023-01-13T08:45:15.167Z,99796.28
2023-01-13T08:47:42.844Z,99782.19
2023-01-13T08:50:11.729Z,99778.56
2023-01-13T08:52:40.338Z,99782.03
2023-01-13T08:55:10.391Z,99773.69
2023-01-13T08:57:40.259Z,99775.06
2023-01-13T09:00:09.175Z,99780.38
2023-01-13T09:02:38.392Z,99793.06
2023-01-13T09:05:07.206Z,99802.09
2023-01-13T09:07:35.012Z,99795.38
2023-01-13T09:10:03.015Z,99803.34
2023-01-13T09:12:48.497Z,99800.78
2023-01-13T09:15:18.512Z,99798.47
2023-01-13T09:17:48.109Z,99796.78
2023-01-13T09:20:16.559Z,99793.97
2023-01-13T09:22:44.151Z,99796.03
2023-01-13T09:25:12.665Z,99793.97
2023-01-13T09:27:40.441Z,99798.72
2023-01-13T09:30:13.351Z,99801.91
2023-01-13T09:33:57.181Z,99811.84
2023-01-13T09:36:26.188Z,99809.31
2023-01-13T09:38:55.340Z,99814.03
2023-01-13T09:41:42.704Z,99816.31
2023-01-13T09:44:18.265Z,99817.94
2023-01-13T09:46:52.350Z,99816.84
2023-01-13T09:49:22.847Z,99830.34
2023-01-13T09:51:59.140Z,99820.88
2023-01-13T09:54:34.590Z,99829.50
2023-01-13T09:57:04.335Z,99821.56
2023-01-13T09:59:58.822Z,99821.00
2023-01-13T10:02:42.440Z,99823.72
2023-01-13T10:05:19.652Z,99829.22
2023-01-13T10:07:53.330Z,99832.41
2023-01-13T10:10:30.786Z,99832.09
2023-01-13T10:13:15.955Z,99832.81
2023-01-13T10:15:55.438Z,99829.44
2023-01-13T10:18:29.782Z,99837.97
2023-01-13T10:21:02.703Z,99837.81
2023-01-13T10:23:51.115Z,99841.19
2023-01-13T10:26:38.470Z,99844.34
2023-01-13T10:29:20.596Z,99839.59
2023-01-13T10:31:48.744Z,99848.56
2023-01-13T10:34:17.403Z,99826.44
2023-01-13T10:36:59.331Z,99829.81
2023-01-13T10:39:39.028Z,99827.81
2023-01-13T10:42:08.355Z,99849.47
2023-01-13T10:44:49.530Z,99842.88
2023-01-13T10:47:25.515Z,99838.41
2023-01-13T10:50:25.812Z,99849.94
2023-01-13T10:52:59.906Z,99847.31
2023-01-13T10:55:32.145Z,99838.69
2023-01-13T10:58:12.444Z,99842.97
2023-01-13T11:00:41.843Z,99846.16
2023-01-13T11:03:18.353Z,99852.13
2023-01-13T11:05:51.279Z,99848.75
2023-01-13T11:08:22.347Z,99849.50
2023-01-13T11:10:53.613Z,99855.59
2023-01-13T11:13:31.551Z,99845.69
2023-01-13T11:16:04.584Z,99846.44
2023-01-13T11:18:43.489Z,99851.09
2023-01-13T11:21:23.231Z,99851.88
2023-01-13T11:24:03.186Z,99847.47
2023-01-13T11:26:43.413Z,99847.47
2023-01-13T11:29:18.835Z,99842.59
2023-01-13T11:31:53.143Z,99844.56
2023-01-13T11:34:31.286Z,99848.22
2023-01-13T11:37:02.339Z,99854.03
2023-01-13T11:39:43.990Z,99844.34
2023-01-13T11:42:22.383Z,99858.53
2023-01-13T11:45:02.439Z,99853.88
2023-01-13T11:47:30.895Z,99849.56
2023-01-13T11:49:58.742Z,99868.47
2023-01-13T11:52:41.242Z,99872.56
2023-01-13T11:55:22.948Z,99867.44
2023-01-13T11:58:06.523Z,99864.25
2023-01-13T12:00:43.228Z,99864.03
2023-01-13T12:03:35.573Z,99866.16
2023-01-13T12:06:16.392Z,99874.44
2023-01-13T12:08:59.454Z,99881.53
2023-01-13T12:11:32.350Z,99884.44
2023-01-13T12:14:17.463Z,99895.03
2023-01-13T12:16:50.335Z,99900.94
2023-01-13T12:19:25.246Z,99902.94
2023-01-13T12:22:12.776Z,99896.22
2023-01-13T12:24:50.461Z,99896.16
2023-01-13T12:27:26.479Z,99888.34
2023-01-13T12:30:00.730Z,99902.75
2023-01-13T12:32:35.354Z,99896.81
2023-01-13T12:35:20.962Z,99919.31
2023-01-13T12:37:56.340Z,99901.84
2023-01-13T12:40:35.863Z,99902.00
2023-01-13T12:43:34.010Z,99907.28
2023-01-13T12:46:44.742Z,99905.91
2023-01-13T12:49:23.941Z,99925.19
2023-01-13T12:52:10.103Z,99912.28
2023-01-13T12:55:18.367Z,99918.75
2023-01-13T12:58:03.510Z,99910.78
2023-01-13T13:00:38.782Z,99930.59
2023-01-13T13:03:27.402Z,99928.53
2023-01-13T13:09:03.897Z,99921.03
2023-01-13T13:12:05.357Z,99924.78
2023-01-13T13:15:03.213Z,99934.13
2023-01-13T13:17:45.161Z,99934.81
2023-01-13T13:20:54.257Z,99948.22
2023-01-13T13:23:48.111Z,99947.38
2023-01-13T13:26:24.951Z,99942.94
2023-01-13T13:29:20.902Z,99947.25
2023-01-13T13:32:10.206Z,99956.63
2023-01-13T13:34:49.349Z,99980.56
2023-01-13T13:37:55.470Z,99982.25
2023-01-13T13:40:44.282Z,99982.78
2023-01-13T13:43:33.204Z,99984.75
2023-01-13T13:46:15.436Z,99973.91
2023-01-13T13:48:53.295Z,99987.25
2023-01-13T13:51:29.383Z,99990.88
2023-01-13T13:54:02.615Z,99996.03
2023-01-13T13:56:39.433Z,99988.66
2023-01-13T13:59:13.326Z,100009.19
2023-01-13T14:01:45.134Z,100006.66
2023-01-13T14:04:18.216Z,100018.50
2023-01-13T14:06:55.368Z,100016.00
2023-01-13T14:09:25.390Z,100022.44
2023-01-13T14:12:00.107Z,100031.53
2023-01-13T14:14:28.477Z,100035.84
2023-01-13T14:16:56.591Z,100044.72
2023-01-13T14:19:32.317Z,100038.19
2023-01-13T14:22:02.144Z,100045.72
2023-01-13T14:24:32.763Z,100053.94
2023-01-13T14:27:11.428Z,100059.25
2023-01-13T14:29:39.423Z,100061.31
2023-01-13T14:32:08.468Z,100064.00
2023-01-13T14:34:39.261Z,100080.91
2023-01-13T14:37:26.100Z,100068.84
2023-01-13T14:39:56.294Z,100061.22
2023-01-13T14:42:31.521Z,100064.84
2023-01-13T14:44:59.251Z,100073.88
2023-01-13T14:47:29.348Z,100086.19
2023-01-13T14:50:03.291Z,100093.56
2023-01-13T14:52:34.936Z,100100.22
2023-01-13T14:55:30.309Z,100113.78
2023-01-13T14:58:29.272Z,100114.47
2023-01-13T15:01:29.572Z,100121.69
2023-01-13T15:04:16.936Z,100112.63
2023-01-13T15:06:48.171Z,100115.84
2023-01-13T15:09:25.566Z,100128.50
2023-01-13T15:11:54.286Z,100133.94
2023-01-13T15:14:31.078Z,100132.00
2023-01-13T15:16:59.275Z,100143.97
2023-01-13T15:19:26.878Z,100150.25
2023-01-13T15:21:55.694Z,100155.09
2023-01-13T15:24:23.275Z,100169.31
2023-01-13T15:26:55.844Z,100176.28
2023-01-13T15:29:25.075Z,100163.03
2023-01-13T15:31:52.694Z,100164.84
2023-01-13T15:34:20.309Z,100163.59
2023-01-13T15:36:47.883Z,100165.69
2023-01-13T15:39:17.354Z,100168.63
2023-01-13T15:42:03.356Z,100172.41
2023-01-13T15:44:49.915Z,100171.38
2023-01-13T15:47:17.548Z,100170.88
2023-01-13T15:49:47.472Z,100179.47
2023-01-13T15:52:21.398Z,100180.00
2023-01-13T15:54:49.372Z,100182.50
2023-01-13T15:57:23.104Z,100192.31
2023-01-13T15:59:54.400Z,100202.63
2023-01-13T16:02:23.439Z,100195.22
2023-01-13T16:04:53.738Z,100191.63
2023-01-13T16:07:24.804Z,100185.91
2023-01-13T16:09:53.076Z,100194.13
2023-01-13T16:12:21.031Z,100195.38
2023-01-13T16:14:48.694Z,100200.94
2023-01-13T16:17:19.422Z,100204.81
2023-01-13T16:19:47.855Z,100212.75
2023-01-13T16:22:17.424Z,100218.66
2023-01-13T16:24:45.377Z,100236.22
2023-01-13T16:27:15.757Z,100243.19
2023-01-13T16:29:44.391Z,100246.81
2023-01-13T16:32:19.700Z,100235.75
2023-01-13T16:34:47.728Z,100233.03
2023-01-13T16:37:21.238Z,100236.81
2023-01-13T16:39:49.303Z,100239.19
2023-01-13T16:42:17.219Z,100251.84
2023-01-13T16:44:46.519Z,100252.81
2023-01-13T16:47:15.217Z,100248.75
2023-01-13T16:49:45.365Z,100255.72
2023-01-13T16:52:13.060Z,100251.09
2023-01-13T16:54:40.719Z,100254.56
2023-01-13T16:57:13.169Z,100262.66
2023-01-13T16:59:41.440Z,100272.50
2023-01-13T17:02:21.060Z,100273.34
2023-01-13T17:04:50.460Z,100279.41
2023-01-13T17:07:19.364Z,100282.13
2023-01-13T17:09:47.457Z,100294.28
2023-01-13T17:12:15.085Z,100294.91
2023-01-13T17:14:43.464Z,100293.44
2023-01-13T17:17:21.652Z,100288.97
2023-01-13T17:19:51.108Z,100293.13
2023-01-13T17:22:19.379Z,100295.88
2023-01-13T17:24:48.694Z,100303.50
2023-01-13T17:27:18.441Z,100302.69
2023-01-13T17:29:46.116Z,100305.56
2023-01-13T17:32:16.607Z,100312.53
2023-01-13T17:34:44.709Z,100316.25
2023-01-13T17:37:14.719Z,100312.75
2023-01-13T17:39:44.457Z,100320.09
2023-01-13T17:42:12.389Z,100324.03
2023-01-13T17:44:40.139Z,100336.81
2023-01-13T17:47:08.420Z,100328.78
2023-01-13T17:49:36.022Z,100340.91
2023-01-13T17:52:03.697Z,100343.28
2023-01-13T17:54:32.735Z,100350.28
2023-01-13T17:57:00.451Z,100339.22
2023-01-13T17:59:28.155Z,100352.19
2023-01-13T18:01:55.907Z,100347.31
2023-01-13T18:04:27.086Z,100355.13
2023-01-13T18:06:56.601Z,100335.75
2023-01-13T18:09:24.482Z,100365.84
2023-01-13T18:11:53.480Z,100368.34
2023-01-13T18:14:22.377Z,100361.81
2023-01-13T18:16:50.153Z,100370.16
2023-01-13T18:19:35.653Z,100365.06
2023-01-13T18:22:20.772Z,100359.63
2023-01-13T18:25:07.509Z,100366.63
2023-01-13T18:27:40.991Z,100372.16
2023-01-13T18:30:11.941Z,100379.41
2023-01-13T18:32:39.999Z,100379.38
2023-01-13T18:35:10.669Z,100381.59
2023-01-13T18:37:40.398Z,100389.69
2023-01-13T18:40:11.992Z,100398.84
2023-01-13T18:42:54.130Z,100392.16
2023-01-13T18:45:24.200Z,100392.19
2023-01-13T18:47:52.208Z,100391.88
2023-01-13T18:50:21.593Z,100394.78
2023-01-13T18:52:49.229Z,100405.94
2023-01-13T18:55:17.106Z,100412.41
2023-01-13T18:57:47.376Z,100407.34
2023-01-13T19:00:18.878Z,100414.81
2023-01-13T19:02:48.022Z,100416.78
2023-01-13T19:05:15.973Z,100432.78
2023-01-13T19:07:50.174Z,100434.56
2023-01-13T19:10:18.668Z,100440.34
2023-01-13T19:12:48.437Z,100441.78
2023-01-13T19:15:17.152Z,100449.25
2023-01-13T19:17:45.510Z,100460.81
2023-01-13T19:20:13.552Z,100456.59
2023-01-13T19:22:41.164Z,100464.44
2023-01-13T19:25:09.157Z,100464.94
2023-01-13T19:27:37.577Z,100485.16
2023-01-13T19:30:08.142Z,100473.00
2023-01-13T19:32:35.865Z,100488.19
2023-01-13T19:35:04.088Z,100502.63
2023-01-13T19:37:34.389Z,100515.78
2023-01-13T19:40:08.990Z,100513.13
2023-01-13T19:42:54.523Z,100518.69
2023-01-13T19:45:30.946Z,100502.66
2023-01-13T19:48:01.753Z,100530.47
2023-01-13T19:50:29.529Z,100554.69
2023-01-13T19:52:57.135Z,100544.19
2023-01-13T19:55:24.772Z,100545.91
2023-01-13T19:57:52.418Z,100534.84
2023-01-13T20:00:22.339Z,100536.88
2023-01-13T20:02:53.220Z,100542.28
2023-01-13T20:05:25.569Z,100547.81
2023-01-13T20:07:54.013Z,100544.91
2023-01-13T20:10:22.976Z,100538.53
2023-01-13T20:12:50.969Z,100539.00
2023-01-13T20:15:18.644Z,100544.31
2023-01-13T20:17:46.234Z,100548.47
2023-01-13T20:20:17.349Z,100545.91
2023-01-13T20:22:45.348Z,100559.38
2023-01-13T20:25:16.721Z,100559.00
2023-01-13T20:27:45.325Z,100555.03
2023-01-13T20:30:14.427Z,100557.28
2023-01-13T20:32:43.213Z,100564.47
2023-01-13T20:35:11.687Z,100563.25
2023-01-13T20:37:42.010Z,100572.00
2023-01-13T20:40:14.395Z,100575.94
2023-01-13T20:42:45.586Z,100571.28
2023-01-13T20:45:17.322Z,100579.22
2023-01-13T20:47:46.623Z,100582.19
2023-01-13T20:50:15.777Z,100588.09
2023-01-13T20:52:45.381Z,100580.38
2023-01-13T20:55:14.175Z,100595.78
2023-01-13T20:57:42.129Z,100603.97
2023-01-13T21:00:11.176Z,100607.19
2023-01-13T21:02:40.894Z,100612.47
2023-01-13T21:05:09.131Z,100622.28
2023-01-13T21:07:37.483Z,100623.22
2023-01-13T21:10:07.101Z,100614.84
2023-01-13T21:12:52.523Z,100613.56
2023-01-13T21:15:21.767Z,100614.84
2023-01-13T21:18:09.959Z,100623.66
2023-01-13T21:20:38.967Z,100616.69
2023-01-13T21:23:10.523Z,100619.69
2023-01-13T21:25:40.108Z,100615.34
2023-01-13T21:28:11.145Z,100617.16
2023-01-13T21:30:39.182Z,100612.81
2023-01-13T21:33:06.774Z,100610.41
2023-01-13T21:35:38.202Z,100605.97
2023-01-13T21:38:07.346Z,100616.88
2023-01-13T21:40:36.346Z,100617.09
2023-01-13T21:43:22.803Z,100625.25
2023-01-13T21:46:05.642Z,100627.28
2023-01-13T21:48:33.538Z,100640.00
2023-01-13T21:51:02.472Z,100649.91
2023-01-13T21:53:30.065Z,100646.31
2023-01-13T21:55:57.700Z,100650.03
2023-01-13T21:58:26.696Z,100659.38
2023-01-13T22:00:54.448Z,100664.84
2023-01-13T22:03:22.190Z,100677.09
2023-01-13T22:05:54.467Z,100678.19
2023-01-13T22:08:22.124Z,100674.47
2023-01-13T22:10:57.479Z,100682.81
2023-01-13T22:13:48.078Z,100690.97
2023-01-13T22:16:18.296Z,100684.88
2023-01-13T22:18:45.912Z,100688.09
2023-01-13T22:21:14.918Z,100680.09
2023-01-13T22:23:42.540Z,100697.22
2023-01-13T22:26:10.752Z,100699.75
2023-01-13T22:28:42.886Z,100701.31
2023-01-13T22:31:12.119Z,100696.56
2023-01-13T22:33:40.198Z,100711.75
2023-01-13T22:36:08.965Z,100714.41
2023-01-13T22:38:37.453Z,100713.22
2023-01-13T22:41:07.753Z,100716.81
2023-01-13T22:43:36.063Z,100720.50
2023-01-13T22:46:07.252Z,100725.53
2023-01-13T22:48:35.364Z,100724.50
2023-01-13T22:51:06.365Z,100732.38
2023-01-13T22:53:34.302Z,100735.59
2023-01-13T22:56:02.153Z,100730.56
2023-01-13T22:58:29.899Z,100732.91
2023-01-13T23:01:07.518Z,100726.66
2023-01-13T23:03:36.593Z,100724.13
2023-01-13T23:06:05.211Z,100729.34
2023-01-13T23:08:34.018Z,100728.50
2023-01-13T23:11:02.848Z,100736.09
2023-01-13T23:13:30.680Z,100739.00
2023-01-13T23:16:03.232Z,100742.88
2023-01-13T23:18:31.049Z,100743.72
2023-01-13T23:21:05.626Z,100748.91
2023-01-13T23:23:34.453Z,100750.41
2023-01-13T23:26:03.506Z,100747.13
2023-01-13T23:28:31.567Z,100750.63
2023-01-13T23:31:00.207Z,100746.28
2023-01-13T23:33:28.174Z,100749.75
2023-01-13T23:35:58.634Z,100742.47
2023-01-13T23:38:29.113Z,100752.53
2023-01-13T23:40:57.016Z,100756.00
2023-01-13T23:43:26.187Z,100753.28
2023-01-13T23:46:02.429Z,100754.59
2023-01-13T23:48:30.824Z,100752.41
2023-01-13T23:50:59.041Z,100751.69
2023-01-13T23:53:33.376Z,100756.53
2023-01-13T23:56:01.480Z,100753.59
2023-01-13T23:58:30.914Z,100756.84
